Météo Nord-Pas-de-Calais   La météo au plus près de chez vous

Station météorologique

Observations météo à Toulouse-Blagnac (31069)

31069001 151 m Dernier relevé à 20:06
31.2°C
Humidité 21 % Vent 9.4 km/h 1020.1 hPa

Journée consultée

Samedi 5 Septembre 2026

Synthèse de la journée

Périodes de référence en UTC

Température maximale

33.2°C

à 17:42

06h 06h

Température minimale

19°C

à 08:00

18h 18h

Rafale maximale

36 km/h

à 02:30

00h 00h

Précipitations

0 mm

Cumul quotidien

06h 06h

Ensoleillement

12h 16 mins

Durée quotidienne

00h 00h

Graphiques de la journée

Heure locale Réduire

Données détaillées

Relevés météo

Pas de 6 minutes Afficher les relevés infra-horaires
Relevés météo détaillés à Toulouse-Blagnac pour le Samedi 5 Septembre 2026
Heure Température °C Point de rosée °C Humidité % Vent moyen (raf.), km/h Précipitations mm Température à 10 cm °C Température à 20 cm °C Température à 50 cm °C Température à 100 cm °C Visibilité m État du sol   Hauteur neige cm Ensoleillement min Rayonnement global W/m² Pression hPa
20:06 31.2 °C 6.3 °C 21 % 5 km/h (8 km/h) 0 mm0 mm 28.3 °C 26.9 °C 24.6 °C 23.2 °C 60000 m 0   0 cm 0 min 0 W/m² 1020.1 hPa
20:00 31.3 °C 6.4 °C 21 % 5 km/h (9 km/h) 0 mm0 mm 28.4 °C 26.8 °C 24.6 °C 23.2 °C 60000 m 0   0 cm 5 min 9.5 W/m² 1020.1 hPa
19:54 31.5 °C 6.5 °C 21 % 6 km/h (9 km/h) 0 mm0 mm 28.4 °C 26.8 °C 24.6 °C 23.2 °C 60000 m 0   0 cm 6 min 14.7 W/m² 1020.1 hPa
19:48 31.6 °C 6.6 °C 21 % 7 km/h (10 km/h) 0 mm0 mm 28.4 °C 26.8 °C 24.6 °C 23.2 °C 60000 m 0   0 cm 6 min 20.2 W/m² 1020.2 hPa
19:42 31.7 °C 6 °C 20 % 7 km/h (10 km/h) 0 mm0 mm 28.4 °C 26.8 °C 24.6 °C 23.2 °C 60000 m 0   0 cm 6 min 25.2 W/m² 1020.2 hPa
19:36 31.9 °C 6.1 °C 20 % 7 km/h (11 km/h) 0 mm0 mm 28.4 °C 26.8 °C 24.6 °C 23.2 °C 60000 m 0   0 cm 6 min 30.8 W/m² 1020.2 hPa
19:30 32.1 °C 7 °C 21 % 6 km/h (11 km/h) 0 mm0 mm 28.4 °C 26.7 °C 24.6 °C 23.2 °C 60000 m 0   0 cm 6 min 36.4 W/m² 1020.1 hPa
19:24 32.2 °C 7.1 °C 21 % 7 km/h (10 km/h) 0 mm0 mm 28.4 °C 26.7 °C 24.6 °C 23.2 °C 60000 m 0   0 cm 6 min 42.1 W/m² 1020.1 hPa
19:18 32.2 °C 7.1 °C 21 % 9 km/h (13 km/h) 0 mm0 mm 28.4 °C 26.7 °C 24.6 °C 23.2 °C 60000 m 0   0 cm 6 min 48.2 W/m² 1020.2 hPa
19:12 32.3 °C 7.2 °C 21 % 9 km/h (13 km/h) 0 mm0 mm 28.4 °C 26.7 °C 24.6 °C 23.2 °C 60000 m 0   0 cm 6 min 54.2 W/m² 1020.1 hPa
19:06 32.3 °C 7.2 °C 21 % 9 km/h (15 km/h) 0 mm0 mm 28.4 °C 26.7 °C 24.6 °C 23.2 °C 60000 m 0   0 cm 6 min 60.7 W/m² 1020.1 hPa
19:00 32.3 °C 6.5 °C 20 % 11 km/h (17 km/h) 0 mm0 mm 28.4 °C 26.6 °C 24.6 °C 23.2 °C 60000 m 0   0 cm 6 min 67.4 W/m² 1020.1 hPa
18:54 32.5 °C 6.6 °C 20 % 11 km/h (18 km/h) 0 mm0 mm 28.4 °C 26.6 °C 24.6 °C 23.2 °C 46480 m 0   0 cm 6 min 74.5 W/m² 1020.1 hPa
18:48 32.6 °C 7.4 °C 21 % 10 km/h (17 km/h) 0 mm0 mm 28.4 °C 26.6 °C 24.6 °C 23.2 °C 46480 m 0   0 cm 6 min 81.4 W/m² 1020.1 hPa
18:42 32.5 °C 7.3 °C 21 % 11 km/h (18 km/h) 0 mm0 mm 28.4 °C 26.6 °C 24.6 °C 23.2 °C 60000 m 0   0 cm 6 min 88.9 W/m² 1020.1 hPa
18:36 32.7 °C 7.5 °C 21 % 13 km/h (19 km/h) 0 mm0 mm 28.4 °C 26.6 °C 24.6 °C 23.2 °C 60000 m 0   0 cm 6 min 96.5 W/m² 1020 hPa
18:30 32.7 °C 7.5 °C 21 % 14 km/h (19 km/h) 0 mm0 mm 28.4 °C 26.6 °C 24.6 °C 23.2 °C 60000 m 0   0 cm 6 min 104.2 W/m² 1020.1 hPa
18:24 32.8 °C 8.3 °C 22 % 9 km/h (19 km/h) 0 mm0 mm 28.4 °C 26.5 °C 24.6 °C 23.2 °C 60000 m 0   0 cm 6 min 112 W/m² 1020.2 hPa
18:18 33 °C 8.4 °C 22 % 9 km/h (16 km/h) 0 mm0 mm 28.3 °C 26.5 °C 24.6 °C 23.2 °C 60000 m 0   0 cm 6 min 118.9 W/m² 1020.2 hPa
18:12 32.9 °C 7.7 °C 21 % 12 km/h (18 km/h) 0 mm0 mm 28.3 °C 26.5 °C 24.6 °C 23.2 °C 60000 m 0   0 cm 6 min 126.3 W/m² 1020.2 hPa
18:06 33.1 °C 7.8 °C 21 % 12 km/h (18 km/h) 0 mm0 mm 28.3 °C 26.4 °C 24.6 °C 23.2 °C 60000 m 0   0 cm 6 min 129.8 W/m² 1020.3 hPa
18:00 32.8 °C 7.6 °C 21 % 13 km/h (19 km/h) 0 mm0 mm 28.3 °C 26.4 °C 24.6 °C 23.2 °C 60000 m 0   0 cm 6 min 131.8 W/m² 1020.4 hPa
17:54 33.2 °C 7.9 °C 21 % 12 km/h (19 km/h) 0 mm0 mm 28.3 °C 26.4 °C 24.6 °C 23.2 °C 60000 m 0   0 cm 6 min 139.3 W/m² 1020.5 hPa
17:48 33 °C 9.1 °C 23 % 12 km/h (19 km/h) 0 mm0 mm 28.2 °C 26.4 °C 24.6 °C 23.2 °C 60000 m 0   0 cm 6 min 150.7 W/m² 1020.5 hPa
17:42 33.2 °C 9.3 °C 23 % 10 km/h (19 km/h) 0 mm0 mm 28.2 °C 26.3 °C 24.6 °C 23.2 °C 60000 m 0   0 cm 6 min 152 W/m² 1020.4 hPa
17:36 33.1 °C 9.2 °C 23 % 9 km/h (18 km/h) 0 mm0 mm 28.2 °C 26.3 °C 24.6 °C 23.2 °C 53270 m 0   0 cm 6 min 158.8 W/m² 1020.4 hPa
17:30 33 °C 9.7 °C 24 % 8 km/h (19 km/h) 0 mm0 mm 28.2 °C 26.3 °C 24.6 °C 23.2 °C 60000 m 0   0 cm 6 min 162.6 W/m² 1020.5 hPa
17:24 33.1 °C 9.8 °C 24 % 11 km/h (21 km/h) 0 mm0 mm 28.2 °C 26.2 °C 24.6 °C 23.2 °C 34790 m 0   0 cm 6 min 160.4 W/m² 1020.5 hPa
17:18 32.8 °C 10.2 °C 25 % 8 km/h (16 km/h) 0 mm0 mm 28.1 °C 26.2 °C 24.6 °C 23.2 °C 60000 m 0   0 cm 6 min 160.9 W/m² 1020.5 hPa
17:12 33 °C 10.4 °C 25 % 7 km/h (20 km/h) 0 mm0 mm 28 °C 26.1 °C 24.6 °C 23.2 °C 60000 m 0   0 cm 6 min 172.2 W/m² 1020.6 hPa
17:06 32.8 °C 10.8 °C 26 % 6 km/h (13 km/h) 0 mm0 mm 28 °C 26.1 °C 24.6 °C 23.2 °C 19940 m 0   0 cm 6 min 173.1 W/m² 1020.8 hPa
17:00 32.9 °C 10.3 °C 25 % 9 km/h (16 km/h) 0 mm0 mm 27.9 °C 26.1 °C 24.6 °C 23.2 °C 19940 m 0   0 cm 6 min 180.5 W/m² 1020.8 hPa
16:54 32.7 °C 10.7 °C 26 % 10 km/h (19 km/h) 0 mm0 mm 27.9 °C 26 °C 24.6 °C 23.2 °C 60000 m 0   0 cm 6 min 186.2 W/m² 1020.8 hPa
16:48 32.7 °C 10.7 °C 26 % 9 km/h (19 km/h) 0 mm0 mm 27.9 °C 26 °C 24.6 °C 23.2 °C 60000 m 0   0 cm 6 min 194.9 W/m² 1020.9 hPa
16:42 32.8 °C 10.8 °C 26 % 8 km/h (16 km/h) 0 mm0 mm 27.8 °C 26 °C 24.6 °C 23.2 °C 56490 m 0   0 cm 6 min 206 W/m² 1020.9 hPa
16:36 32.7 °C 10.7 °C 26 % 10 km/h (17 km/h) 0 mm0 mm 27.7 °C 25.9 °C 24.6 °C 23.2 °C 19800 m 0   0 cm 6 min 208.7 W/m² 1021 hPa
16:30 32.8 °C 10.8 °C 26 % 11 km/h (17 km/h) 0 mm0 mm 27.7 °C 26 °C 24.6 °C 23.2 °C 18800 m 0   0 cm 6 min 214.1 W/m² 1021 hPa
16:24 32.8 °C 10.2 °C 25 % 9 km/h (15 km/h) 0 mm0 mm 27.6 °C 25.9 °C 24.6 °C 23.2 °C 49000 m 0   0 cm 6 min 212.2 W/m² 1021 hPa
16:18 32.5 °C 10.5 °C 26 % 10 km/h (17 km/h) 0 mm0 mm 27.6 °C 25.9 °C 24.6 °C 23.2 °C 60000 m 0   0 cm 6 min 215.3 W/m² 1021.2 hPa
16:12 33 °C 10.9 °C 26 % 8 km/h (14 km/h) 0 mm0 mm 27.5 °C 25.9 °C 24.6 °C 23.2 °C 60000 m 0   0 cm 6 min 220.8 W/m² 1021.2 hPa
16:06 32.6 °C 11.2 °C 27 % 7 km/h (13 km/h) 0 mm0 mm 27.5 °C 25.8 °C 24.6 °C 23.2 °C 60000 m 0   0 cm 6 min 223.5 W/m² 1021.3 hPa
16:00 32.5 °C 10.5 °C 26 % 10 km/h (19 km/h) 0 mm0 mm 27.4 °C 25.8 °C 24.6 °C 23.2 °C 60000 m 0   0 cm 6 min 227.7 W/m² 1021.3 hPa
15:54 32.4 °C 10.4 °C 26 % 10 km/h (19 km/h) 0 mm0 mm 27.4 °C 25.8 °C 24.6 °C 23.2 °C 60000 m 0   0 cm 6 min 232.2 W/m² 1021.4 hPa
15:48 32.2 °C 10.8 °C 27 % 8 km/h (14 km/h) 0 mm0 mm 27.3 °C 25.7 °C 24.6 °C 23.2 °C 20000 m 0   0 cm 6 min 222.5 W/m² 1021.4 hPa
15:42 32.5 °C 10.5 °C 26 % 6 km/h (14 km/h) 0 mm0 mm 27.3 °C 25.7 °C 24.6 °C 23.2 °C 20000 m 0   0 cm 6 min 235.7 W/m² 1021.4 hPa
15:36 32.4 °C 11 °C 27 % 6 km/h (15 km/h) 0 mm0 mm 27.2 °C 25.7 °C 24.6 °C 23.2 °C 27810 m 0   0 cm 6 min 245.3 W/m² 1021.5 hPa
15:30 32 °C 10.1 °C 26 % 9 km/h (16 km/h) 0 mm0 mm 27.1 °C 25.6 °C 24.6 °C 23.2 °C 57070 m 0   0 cm 6 min 265.5 W/m² 1021.6 hPa
15:24 32.1 °C 10.7 °C 27 % 7 km/h (16 km/h) 0 mm0 mm 27.1 °C 25.7 °C 24.7 °C 23.3 °C 57070 m 0   0 cm 6 min 262.7 W/m² 1021.6 hPa
15:18 32.1 °C 11.8 °C 29 % 8 km/h (15 km/h) 0 mm0 mm 26.9 °C 25.6 °C 24.6 °C 23.3 °C 60000 m 0   0 cm 6 min 267.8 W/m² 1021.7 hPa
15:12 31.9 °C 11.7 °C 29 % 8 km/h (15 km/h) 0 mm0 mm 26.9 °C 25.6 °C 24.6 °C 23.2 °C 17210 m 0   0 cm 6 min 269.2 W/m² 1021.8 hPa
15:06 32.2 °C 12.4 °C 30 % 6 km/h (13 km/h) 0 mm0 mm 26.8 °C 25.6 °C 24.7 °C 23.2 °C 17450 m 0   0 cm 6 min 273.1 W/m² 1021.9 hPa
15:00 32.1 °C 12.3 °C 30 % 6 km/h (13 km/h) 0 mm0 mm 26.7 °C 25.5 °C 24.6 °C 23.2 °C 39920 m 0   0 cm 6 min 277.1 W/m² 1021.9 hPa
14:54 31.5 °C 11.8 °C 30 % 8 km/h (17 km/h) 0 mm0 mm 26.7 °C 25.5 °C 24.6 °C 23.2 °C 60000 m 0   0 cm 6 min 282.9 W/m² 1022 hPa
14:48 31.4 °C 11.7 °C 30 % 9 km/h (17 km/h) 0 mm0 mm 26.6 °C 25.4 °C 24.6 °C 23.2 °C 23940 m 0   0 cm 6 min 284.9 W/m² 1022 hPa
14:42 31.4 °C 11.7 °C 30 % 9 km/h (16 km/h) 0 mm0 mm 26.6 °C 25.4 °C 24.6 °C 23.2 °C 17910 m 0   0 cm 6 min 282.5 W/m² 1022.1 hPa
14:36 31.2 °C 12.5 °C 32 % 6 km/h (14 km/h) 0 mm0 mm 26.5 °C 25.4 °C 24.7 °C 23.2 °C 17910 m 0   0 cm 6 min 285.5 W/m² 1022.1 hPa
14:30 31 °C 12.4 °C 32 % 6 km/h (11 km/h) 0 mm0 mm 26.4 °C 25.4 °C 24.6 °C 23.2 °C 48990 m 0   0 cm 6 min 283.5 W/m² 1022.2 hPa
14:24 30.9 °C 12.3 °C 32 % 8 km/h (14 km/h) 0 mm0 mm 26.4 °C 25.3 °C 24.6 °C 23.2 °C 60000 m 0   0 cm 6 min 282.1 W/m² 1022.4 hPa
14:18 30.9 °C 12.3 °C 32 % 10 km/h (18 km/h) 0 mm0 mm 26.3 °C 25.3 °C 24.7 °C 23.2 °C 60000 m 0   0 cm 6 min 285.3 W/m² 1022.5 hPa
14:12 30.9 °C 12.3 °C 32 % 10 km/h (18 km/h) 0 mm0 mm 26.2 °C 25.3 °C 24.6 °C 23.2 °C 59300 m 0   0 cm 6 min 288.1 W/m² 1022.6 hPa
14:06 30.7 °C 13 °C 34 % 6 km/h (12 km/h) 0 mm0 mm 26.1 °C 25.3 °C 24.6 °C 23.2 °C 59300 m 0   0 cm 6 min 286.7 W/m² 1022.6 hPa
14:00 30.3 °C 13.1 °C 35 % 8 km/h (16 km/h) 0 mm0 mm 26.1 °C 25.2 °C 24.6 °C 23.2 °C 14940 m 0   0 cm 6 min 285.4 W/m² 1022.6 hPa
13:54 30.3 °C 13.1 °C 35 % 8 km/h (16 km/h) 0 mm0 mm 26 °C 25.2 °C 24.6 °C 23.2 °C 14940 m 0   0 cm 6 min 284.7 W/m² 1022.7 hPa
13:48 30.3 °C 12.7 °C 34 % 5 km/h (11 km/h) 0 mm0 mm 26 °C 25.2 °C 24.7 °C 23.2 °C 38160 m 0   0 cm 6 min 284.1 W/m² 1022.8 hPa
13:42 30.3 °C 11.8 °C 32 % 6 km/h (14 km/h) 0 mm0 mm 25.9 °C 25.2 °C 24.6 °C 23.2 °C 38160 m 0   0 cm 6 min 285.9 W/m² 1022.8 hPa
13:36 30 °C 12 °C 33 % 8 km/h (14 km/h) 0 mm0 mm 25.8 °C 25.2 °C 24.6 °C 23.2 °C 60000 m 0   0 cm 6 min 286.2 W/m² 1023 hPa
13:30 29.7 °C 11.7 °C 33 % 8 km/h (14 km/h) 0 mm0 mm 25.8 °C 25.2 °C 24.6 °C 23.2 °C 46430 m 0   0 cm 6 min 284.3 W/m² 1023 hPa
13:24 29.5 °C 12.9 °C 36 % 6 km/h (14 km/h) 0 mm0 mm 25.7 °C 25.2 °C 24.6 °C 23.2 °C 46430 m 0   0 cm 6 min 283.6 W/m² 1023 hPa
13:18 29.2 °C 13.4 °C 38 % 8 km/h (14 km/h) 0 mm0 mm 25.7 °C 25.1 °C 24.6 °C 23.2 °C 57320 m 0   0 cm 6 min 280.5 W/m² 1023.1 hPa
13:12 29.2 °C 13 °C 37 % 7 km/h (13 km/h) 0 mm0 mm 25.6 °C 25.1 °C 24.6 °C 23.2 °C 57320 m 0   0 cm 6 min 277.7 W/m² 1023.1 hPa
13:06 29.1 °C 13.7 °C 39 % 8 km/h (15 km/h) 0 mm0 mm 25.6 °C 25.1 °C 24.6 °C 23.2 °C 60000 m 0   0 cm 6 min 277.4 W/m² 1023.2 hPa
13:00 29.1 °C 13.7 °C 39 % 6 km/h (15 km/h) 0 mm0 mm 25.5 °C 25.1 °C 24.6 °C 23.2 °C 60000 m 0   0 cm 6 min 276.1 W/m² 1023.3 hPa
12:54 28.7 °C 13.8 °C 40 % 6 km/h (12 km/h) 0 mm0 mm 25.5 °C 25.1 °C 24.6 °C 23.2 °C 59340 m 0   0 cm 6 min 273.2 W/m² 1023.3 hPa
12:48 28.5 °C 13.2 °C 39 % 8 km/h (17 km/h) 0 mm0 mm 25.4 °C 25.1 °C 24.6 °C 23.2 °C 59340 m 0   0 cm 6 min 270.3 W/m² 1023.4 hPa
12:42 28.7 °C 13.8 °C 40 % 6 km/h (15 km/h) 0 mm0 mm 25.3 °C 25.1 °C 24.7 °C 23.2 °C 60000 m 0   0 cm 6 min 267.6 W/m² 1023.5 hPa
12:36 28.4 °C 15.3 °C 45 % 4 km/h (12 km/h) 0 mm0 mm 25.3 °C 25.1 °C 24.6 °C 23.2 °C 19600 m 0   0 cm 6 min 263.8 W/m² 1023.6 hPa
12:30 28.1 °C 15.4 °C 46 % 6 km/h (13 km/h) 0 mm0 mm 25.3 °C 25.1 °C 24.6 °C 23.2 °C 60000 m 0   0 cm 6 min 260.5 W/m² 1023.6 hPa
12:24 27.9 °C 15.2 °C 46 % 6 km/h (13 km/h) 0 mm0 mm 25.2 °C 25.1 °C 24.6 °C 23.2 °C 60000 m 0   0 cm 6 min 257.6 W/m² 1023.7 hPa
12:18 27.9 °C 15.5 °C 47 % 5 km/h (10 km/h) 0 mm0 mm 25.2 °C 25.1 °C 24.7 °C 23.2 °C 60000 m 0   0 cm 6 min 254.7 W/m² 1023.8 hPa
12:12 27.2 °C 14.9 °C 47 % 6 km/h (10 km/h) 0 mm0 mm 25.1 °C 25.1 °C 24.6 °C 23.2 °C 60000 m 0   0 cm 6 min 250.4 W/m² 1023.9 hPa
12:06 27.1 °C 15.1 °C 48 % 5 km/h (10 km/h) 0 mm0 mm 25.1 °C 25.1 °C 24.6 °C 23.2 °C 19960 m 0   0 cm 6 min 244.3 W/m² 1024 hPa
12:00 26.9 °C 15.3 °C 49 % 6 km/h (10 km/h) 0 mm0 mm 25.1 °C 25.1 °C 24.7 °C 23.2 °C 60000 m 0   0 cm 6 min 240.5 W/m² 1024 hPa
11:54 27.1 °C 15.5 °C 49 % 5 km/h (12 km/h) 0 mm0 mm 25 °C 25.1 °C 24.7 °C 23.2 °C 60000 m 0   0 cm 6 min 236.8 W/m² 1023.9 hPa
11:48 26.6 °C 15.3 °C 50 % 4 km/h (12 km/h) 0 mm0 mm 25 °C 25.1 °C 24.6 °C 23.2 °C 60000 m 0   0 cm 6 min 233.4 W/m² 1023.9 hPa
11:42 26.4 °C 15.4 °C 51 % 4 km/h (12 km/h) 0 mm0 mm 25 °C 25.1 °C 24.7 °C 23.2 °C 60000 m 0   0 cm 6 min 229.4 W/m² 1023.9 hPa
11:36 26.1 °C 15.5 °C 52 % 4 km/h (10 km/h) 0 mm0 mm 24.9 °C 25.1 °C 24.7 °C 23.2 °C 60000 m 0   0 cm 6 min 229.9 W/m² 1024 hPa
11:30 25.9 °C 15.9 °C 54 % 4 km/h (10 km/h) 0 mm0 mm 24.9 °C 25.1 °C 24.7 °C 23.2 °C 60000 m 0   0 cm 6 min 225.1 W/m² 1024.1 hPa
11:24 25.4 °C 16 °C 56 % 5 km/h (11 km/h) 0 mm0 mm 24.9 °C 25.1 °C 24.7 °C 23.2 °C 60000 m 0   0 cm 6 min 221.1 W/m² 1024.2 hPa
11:18 25.4 °C 15.7 °C 55 % 8 km/h (14 km/h) 0 mm0 mm 24.9 °C 25.1 °C 24.7 °C 23.2 °C 60000 m 0   0 cm 6 min 217.3 W/m² 1024.2 hPa
11:12 25.3 °C 15.6 °C 55 % 7 km/h (15 km/h) 0 mm0 mm 24.9 °C 25.1 °C 24.7 °C 23.2 °C 60000 m 0   0 cm 6 min 212 W/m² 1024.2 hPa
11:06 25.2 °C 15.8 °C 56 % 5 km/h (15 km/h) 0 mm0 mm 24.9 °C 25.1 °C 24.7 °C 23.2 °C 60000 m 0   0 cm 6 min 205.4 W/m² 1024.2 hPa
11:00 24.7 °C 15.9 °C 58 % 5 km/h (15 km/h) 0 mm0 mm 24.8 °C 25.1 °C 24.6 °C 23.2 °C 60000 m 0   0 cm 6 min 202.1 W/m² 1024.1 hPa
10:54 24 °C 15.5 °C 59 % 5 km/h (12 km/h) 0 mm0 mm 24.8 °C 25.1 °C 24.7 °C 23.2 °C 60000 m 0   0 cm 6 min 196.4 W/m² 1024.2 hPa
10:48 24 °C 15.8 °C 60 % 6 km/h (13 km/h) 0 mm0 mm 24.8 °C 25.1 °C 24.7 °C 23.2 °C 60000 m 0   0 cm 6 min 188.9 W/m² 1024.2 hPa
10:42 23.8 °C 16.1 °C 62 % 7 km/h (13 km/h) 0 mm0 mm 24.8 °C 25.1 °C 24.6 °C 23.2 °C 60000 m 0   0 cm 6 min 183.1 W/m² 1024.1 hPa
10:36 23.5 °C 16 °C 63 % 8 km/h (14 km/h) 0 mm0 mm 24.8 °C 25.1 °C 24.6 °C 23.2 °C 60000 m 0   0 cm 6 min 177.7 W/m² 1024.1 hPa
10:30 23.4 °C 16.2 °C 64 % 8 km/h (14 km/h) 0 mm0 mm 24.8 °C 25.1 °C 24.7 °C 23.2 °C 60000 m 0   0 cm 6 min 168.9 W/m² 1024.1 hPa
10:24 23.1 °C 16.2 °C 65 % 6 km/h (10 km/h) 0 mm0 mm 24.8 °C 25.2 °C 24.7 °C 23.2 °C 60000 m 0   0 cm 6 min 162.7 W/m² 1024.1 hPa
10:18 22.7 °C 16.3 °C 67 % 6 km/h (13 km/h) 0 mm0 mm 24.8 °C 25.2 °C 24.7 °C 23.2 °C 55330 m 0   0 cm 6 min 162 W/m² 1024.1 hPa
10:12 22.5 °C 16.5 °C 69 % 6 km/h (15 km/h) 0 mm0 mm 24.8 °C 25.2 °C 24.6 °C 23.2 °C 55330 m 0   0 cm 6 min 156 W/m² 1024.1 hPa
10:06 22.3 °C 16.6 °C 70 % 9 km/h (15 km/h) 0 mm0 mm 24.8 °C 25.2 °C 24.7 °C 23.2 °C 60000 m 0   0 cm 6 min 149.8 W/m² 1024.1 hPa
10:00 22.2 °C 16.7 °C 71 % 9 km/h (15 km/h) 0 mm0 mm 24.8 °C 25.2 °C 24.7 °C 23.2 °C 60000 m 0   0 cm 6 min 143.8 W/m² 1024.2 hPa
09:54 21.8 °C 16.7 °C 73 % 7 km/h (12 km/h) 0 mm0 mm 24.8 °C 25.2 °C 24.7 °C 23.2 °C 60000 m 0   0 cm 6 min 138.5 W/m² 1024.2 hPa
09:48 21.8 °C 16.5 °C 72 % 8 km/h (13 km/h) 0 mm0 mm 24.8 °C 25.2 °C 24.7 °C 23.2 °C 60000 m 0   0 cm 6 min 131.7 W/m² 1024.1 hPa
09:42 21.6 °C 16.8 °C 74 % 9 km/h (14 km/h) 0 mm0 mm 24.8 °C 25.2 °C 24.6 °C 23.2 °C 60000 m 0   0 cm 6 min 119.9 W/m² 1024.2 hPa
09:36 21.4 °C 17 °C 76 % 9 km/h (14 km/h) 0 mm0 mm 24.8 °C 25.2 °C 24.7 °C 23.2 °C 60000 m 0   0 cm 6 min 113.1 W/m² 1024.2 hPa
09:30 21.3 °C 17.1 °C 77 % 10 km/h (16 km/h) 0 mm0 mm 24.8 °C 25.2 °C 24.6 °C 23.2 °C 60000 m 0   0 cm 6 min 103.2 W/m² 1024.2 hPa
09:24 21 °C 17 °C 78 % 9 km/h (14 km/h) 0 mm0 mm 24.9 °C 25.3 °C 24.7 °C 23.2 °C 60000 m 0   0 cm 6 min 100.1 W/m² 1024.2 hPa
09:18 20.9 °C 17.1 °C 79 % 11 km/h (15 km/h) 0 mm0 mm 24.9 °C 25.3 °C 24.7 °C 23.2 °C 60000 m 0   0 cm 6 min 94.6 W/m² 1024.2 hPa
09:12 20.8 °C 17.2 °C 80 % 11 km/h (16 km/h) 0 mm0 mm 24.9 °C 25.3 °C 24.7 °C 23.2 °C 60000 m 0   0 cm 6 min 90.1 W/m² 1024.1 hPa
09:06 20.7 °C 17.1 °C 80 % 10 km/h (16 km/h) 0 mm0 mm 24.9 °C 25.3 °C 24.7 °C 23.2 °C 59990 m 0   0 cm 6 min 87.2 W/m² 1024.1 hPa
09:00 20.5 °C 17.3 °C 82 % 9 km/h (13 km/h) 0 mm0 mm 24.9 °C 25.3 °C 24.7 °C 23.2 °C 59950 m 0   0 cm 6 min 79.2 W/m² 1024 hPa
08:54 20.4 °C 17.4 °C 83 % 10 km/h (14 km/h) 0 mm0 mm 24.9 °C 25.3 °C 24.7 °C 23.2 °C 58900 m 0   0 cm 6 min 69.2 W/m² 1023.9 hPa
08:48 20.2 °C 17.4 °C 84 % 10 km/h (14 km/h) 0 mm0 mm 24.9 °C 25.3 °C 24.6 °C 23.2 °C 57250 m 0   0 cm 6 min 61.7 W/m² 1023.9 hPa
08:42 20.1 °C 17.7 °C 86 % 8 km/h (13 km/h) 0 mm0 mm 24.9 °C 25.3 °C 24.6 °C 23.2 °C 19890 m 0   0 cm 6 min 60.3 W/m² 1023.9 hPa
08:36 19.9 °C 17.7 °C 87 % 6 km/h (11 km/h) 0 mm0 mm 25 °C 25.4 °C 24.7 °C 23.2 °C 19740 m 0   0 cm 6 min 53.7 W/m² 1023.8 hPa
08:30 19.7 °C 17.7 °C 88 % 6 km/h (9 km/h) 0 mm0 mm 25 °C 25.4 °C 24.7 °C 23.2 °C 46940 m 0   0 cm 6 min 47.1 W/m² 1023.8 hPa
08:24 19.6 °C 17.6 °C 88 % 6 km/h (10 km/h) 0 mm0 mm 25 °C 25.4 °C 24.6 °C 23.2 °C 45060 m 0   0 cm 6 min 40.3 W/m² 1023.7 hPa
08:18 19.5 °C 17.5 °C 88 % 8 km/h (12 km/h) 0 mm0 mm 25 °C 25.4 °C 24.6 °C 23.2 °C 43100 m 0   0 cm 6 min 34.3 W/m² 1023.6 hPa
08:12 19.5 °C 17.6 °C 89 % 9 km/h (13 km/h) 0 mm0 mm 25 °C 25.4 °C 24.7 °C 23.2 °C 41830 m 0   0 cm 6 min 29.2 W/m² 1023.6 hPa
08:06 19.4 °C 17.5 °C 89 % 10 km/h (13 km/h) 0 mm0 mm 25.1 °C 25.4 °C 24.7 °C 23.2 °C 41340 m 0   0 cm 6 min 24 W/m² 1023.4 hPa
08:00 19.3 °C 17.4 °C 89 % 9 km/h (13 km/h) 0 mm0 mm 25.1 °C 25.5 °C 24.7 °C 23.2 °C 41370 m 0   0 cm 6 min 18.3 W/m² 1023.4 hPa
07:54 19.2 °C 17.3 °C 89 % 10 km/h (13 km/h) 0 mm0 mm 25.1 °C 25.5 °C 24.7 °C 23.2 °C 41160 m 0   0 cm 6 min 13.8 W/m² 1023.4 hPa
07:48 19.2 °C 17.3 °C 89 % 11 km/h (16 km/h) 0 mm0 mm 25.1 °C 25.5 °C 24.7 °C 23.2 °C 41580 m 0   0 cm 5 min 10.3 W/m² 1023.4 hPa
07:42 19.2 °C 17.3 °C 89 % 11 km/h (16 km/h) 0 mm0 mm 25.1 °C 25.5 °C 24.7 °C 23.2 °C 41330 m 0   0 cm 0 min 3.9 W/m² 1023.3 hPa
07:36 19.3 °C 17.4 °C 89 % 9 km/h (15 km/h) 0 mm0 mm 25.2 °C 25.5 °C 24.7 °C 23.2 °C 40950 m 0   0 cm 0 min 0 W/m² 1023.3 hPa
07:30 19.1 °C 17.2 °C 89 % 7 km/h (10 km/h) 0 mm0 mm 25.1 °C 25.5 °C 24.6 °C 23.2 °C 42560 m 0   0 cm 0 min 0 W/m² 1023.1 hPa
07:24 19.1 °C 17.1 °C 88 % 7 km/h (12 km/h) 0 mm0 mm 25.2 °C 25.5 °C 24.7 °C 23.2 °C 46820 m 0   0 cm 0 min 0 W/m² 1023 hPa
07:18 19.2 °C 17.2 °C 88 % 9 km/h (14 km/h) 0 mm0 mm 25.2 °C 25.5 °C 24.6 °C 23.2 °C 49240 m 0   0 cm 0 min 0 W/m² 1022.9 hPa
07:12 19.4 °C 17.4 °C 88 % 11 km/h (17 km/h) 0 mm0 mm 25.2 °C 25.6 °C 24.7 °C 23.2 °C 49810 m 0   0 cm 0 min 0 W/m² 1022.8 hPa
07:06 19.5 °C 17.3 °C 87 % 12 km/h (17 km/h) 0 mm0 mm 25.2 °C 25.6 °C 24.7 °C 23.2 °C 50890 m 0   0 cm 0 min 0 W/m² 1022.7 hPa
07:00 19.6 °C 17.4 °C 87 % 11 km/h (17 km/h) 0 mm0 mm 25.2 °C 25.6 °C 24.7 °C 23.2 °C 53100 m 0   0 cm 0 min 0 W/m² 1022.6 hPa
06:54 19.7 °C 17.3 °C 86 % 13 km/h (20 km/h) 0 mm0 mm 25.3 °C 25.6 °C 24.7 °C 23.2 °C 54160 m 0   0 cm 0 min 0 W/m² 1022.6 hPa
06:48 19.8 °C 17.4 °C 86 % 15 km/h (22 km/h) 0 mm0 mm 25.3 °C 25.6 °C 24.7 °C 23.2 °C 55630 m 0   0 cm 0 min 0 W/m² 1022.6 hPa
06:42 19.9 °C 17.5 °C 86 % 15 km/h (22 km/h) 0 mm0 mm 25.3 °C 25.6 °C 24.6 °C 23.2 °C 57470 m 0   0 cm 0 min 0 W/m² 1022.6 hPa
06:36 20 °C 17.4 °C 85 % 13 km/h (19 km/h) 0 mm0 mm 25.3 °C 25.6 °C 24.7 °C 23.2 °C 58880 m 0   0 cm 0 min 0 W/m² 1022.5 hPa
06:30 20 °C 17.4 °C 85 % 12 km/h (19 km/h) 0 mm0 mm 25.3 °C 25.7 °C 24.7 °C 23.2 °C 59680 m 0   0 cm 0 min 0 W/m² 1022.5 hPa
06:24 20.1 °C 17.5 °C 85 % 13 km/h (20 km/h) 0 mm0 mm 25.4 °C 25.7 °C 24.7 °C 23.2 °C 60000 m 0   0 cm 0 min 0 W/m² 1022.5 hPa
06:18 20.1 °C 17.5 °C 85 % 13 km/h (18 km/h) 0 mm0 mm 25.4 °C 25.6 °C 24.6 °C 23.2 °C 60000 m 0   0 cm 0 min 0 W/m² 1022.5 hPa
06:12 20.2 °C 17.4 °C 84 % 12 km/h (19 km/h) 0 mm0 mm 25.4 °C 25.7 °C 24.6 °C 23.2 °C 60000 m 0   0 cm 0 min 0 W/m² 1022.5 hPa
06:06 20.2 °C 17.4 °C 84 % 13 km/h (19 km/h) 0 mm0 mm 25.4 °C 25.7 °C 24.6 °C 23.2 °C 60000 m 0   0 cm 0 min 0 W/m² 1022.5 hPa
06:00 20.3 °C 17.3 °C 83 % 13 km/h (19 km/h) 0 mm0 mm 25.5 °C 25.7 °C 24.6 °C 23.2 °C 60000 m 0   0 cm 0 min 0 W/m² 1022.5 hPa
05:54 20.4 °C 17.4 °C 83 % 13 km/h (19 km/h) 0 mm0 mm 25.5 °C 25.7 °C 24.6 °C 23.2 °C 60000 m 0   0 cm 0 min 0 W/m² 1022.4 hPa
05:48 20.4 °C 17.2 °C 82 % 11 km/h (17 km/h) 0 mm0 mm 25.5 °C 25.7 °C 24.7 °C 23.2 °C 60000 m 0   0 cm 0 min 0 W/m² 1022.3 hPa
05:42 20.5 °C 17.1 °C 81 % 12 km/h (17 km/h) 0 mm0 mm 25.5 °C 25.7 °C 24.6 °C 23.2 °C 60000 m 0   0 cm 0 min 0 W/m² 1022.3 hPa
05:36 20.6 °C 17.2 °C 81 % 11 km/h (17 km/h) 0 mm0 mm 25.5 °C 25.7 °C 24.6 °C 23.2 °C 60000 m 0   0 cm 0 min 0 W/m² 1022.3 hPa
05:30 20.6 °C 17 °C 80 % 11 km/h (17 km/h) 0 mm0 mm 25.6 °C 25.8 °C 24.6 °C 23.2 °C 60000 m 0   0 cm 0 min 0 W/m² 1022.2 hPa
05:24 20.6 °C 17 °C 80 % 10 km/h (17 km/h) 0 mm0 mm 25.6 °C 25.8 °C 24.6 °C 23.2 °C 60000 m 0   0 cm 0 min 0 W/m² 1022.3 hPa
05:18 20.6 °C 16.8 °C 79 % 8 km/h (13 km/h) 0 mm0 mm 25.6 °C 25.8 °C 24.6 °C 23.2 °C 60000 m 0   0 cm 0 min 0 W/m² 1022 hPa
05:12 20.7 °C 16.9 °C 79 % 10 km/h (14 km/h) 0 mm0 mm 25.6 °C 25.8 °C 24.6 °C 23.2 °C 60000 m 0   0 cm 0 min 0 W/m² 1021.9 hPa
05:06 20.9 °C 16.9 °C 78 % 10 km/h (15 km/h) 0 mm0 mm 25.6 °C 25.8 °C 24.6 °C 23.2 °C 60000 m 0   0 cm 0 min 0 W/m² 1021.9 hPa
05:00 21 °C 17 °C 78 % 10 km/h (15 km/h) 0 mm0 mm 25.6 °C 25.8 °C 24.6 °C 23.2 °C 60000 m 0   0 cm 0 min 0 W/m² 1021.9 hPa
04:54 21.1 °C 17.1 °C 78 % 11 km/h (16 km/h) 0 mm0 mm 25.7 °C 25.8 °C 24.6 °C 23.2 °C 60000 m 0   0 cm 0 min 0 W/m² 1022 hPa
04:48 21.2 °C 17 °C 77 % 13 km/h (21 km/h) 0 mm0 mm 25.7 °C 25.8 °C 24.6 °C 23.2 °C 60000 m 0   0 cm 0 min 0 W/m² 1022 hPa
04:42 21.3 °C 17.1 °C 77 % 14 km/h (21 km/h) 0 mm0 mm 25.7 °C 25.9 °C 24.6 °C 23.2 °C 60000 m 0   0 cm 0 min 0 W/m² 1021.9 hPa
04:36 21.3 °C 17.1 °C 77 % 13 km/h (18 km/h) 0 mm0 mm 25.7 °C 25.9 °C 24.6 °C 23.2 °C 60000 m 0   0 cm 0 min 0 W/m² 1021.8 hPa
04:30 21.4 °C 16.8 °C 75 % 13 km/h (22 km/h) 0 mm0 mm 25.7 °C 25.9 °C 24.6 °C 23.2 °C 60000 m 0   0 cm 0 min 0 W/m² 1021.8 hPa
04:24 21.6 °C 17 °C 75 % 15 km/h (27 km/h) 0 mm0 mm 25.7 °C 25.9 °C 24.6 °C 23.2 °C 60000 m 0   0 cm 0 min 0 W/m² 1021.7 hPa
04:18 21.8 °C 17 °C 74 % 16 km/h (27 km/h) 0 mm0 mm 25.7 °C 25.9 °C 24.6 °C 23.2 °C 60000 m 0   0 cm 0 min 0 W/m² 1021.7 hPa
04:12 21.9 °C 17.1 °C 74 % 19 km/h (26 km/h) 0 mm0 mm 25.8 °C 25.9 °C 24.6 °C 23.2 °C 60000 m 0   0 cm 0 min 0 W/m² 1021.8 hPa
04:06 22.1 °C 17 °C 73 % 22 km/h (31 km/h) 0 mm0 mm 25.8 °C 25.9 °C 24.6 °C 23.2 °C 60000 m 0   0 cm 0 min 0 W/m² 1021.8 hPa
04:00 22.2 °C 16.9 °C 72 % 23 km/h (31 km/h) 0 mm0 mm 25.8 °C 25.9 °C 24.6 °C 23.2 °C 60000 m 0   0 cm 0 min 0 W/m² 1021.8 hPa
03:54 22.3 °C 16.8 °C 71 % 25 km/h (32 km/h) 0 mm0 mm 25.8 °C 26 °C 24.6 °C 23.2 °C 60000 m 0   0 cm 0 min 0 W/m² 1021.8 hPa
03:48 22.4 °C 16.7 °C 70 % 26 km/h (34 km/h) 0 mm0 mm 25.8 °C 26 °C 24.6 °C 23.2 °C 60000 m 0   0 cm 0 min 0 W/m² 1021.7 hPa
03:42 22.6 °C 16.6 °C 69 % 25 km/h (34 km/h) 0 mm0 mm 25.9 °C 26 °C 24.6 °C 23.2 °C 60000 m 0   0 cm 0 min 0 W/m² 1021.7 hPa
03:36 22.7 °C 16.3 °C 67 % 22 km/h (32 km/h) 0 mm0 mm 25.9 °C 26 °C 24.6 °C 23.2 °C 60000 m 0   0 cm 0 min 0 W/m² 1021.8 hPa
03:30 22.9 °C 16.2 °C 66 % 23 km/h (30 km/h) 0 mm0 mm 25.9 °C 26 °C 24.6 °C 23.2 °C 60000 m 0   0 cm 0 min 0 W/m² 1021.7 hPa
03:24 23 °C 16.1 °C 65 % 23 km/h (30 km/h) 0 mm0 mm 25.9 °C 26 °C 24.6 °C 23.2 °C 60000 m 0   0 cm 0 min 0 W/m² 1021.6 hPa
03:18 23.2 °C 15.8 °C 63 % 24 km/h (31 km/h) 0 mm0 mm 25.9 °C 26 °C 24.6 °C 23.2 °C 60000 m 0   0 cm 0 min 0 W/m² 1021.7 hPa
03:12 23.4 °C 15.4 °C 61 % 24 km/h (31 km/h) 0 mm0 mm 25.9 °C 26.1 °C 24.6 °C 23.2 °C 60000 m 0   0 cm 0 min 0 W/m² 1021.6 hPa
03:06 23.5 °C 15.3 °C 60 % 24 km/h (31 km/h) 0 mm0 mm 26 °C 26 °C 24.6 °C 23.2 °C 60000 m 0   0 cm 0 min 0 W/m² 1021.5 hPa
03:00 23.7 °C 14.9 °C 58 % 24 km/h (32 km/h) 0 mm0 mm 26 °C 26.1 °C 24.6 °C 23.2 °C 60000 m 0   0 cm 0 min 0 W/m² 1021.5 hPa
02:54 23.9 °C 14.6 °C 56 % 25 km/h (32 km/h) 0 mm0 mm 26 °C 26.1 °C 24.6 °C 23.2 °C 60000 m 0   0 cm 0 min 0 W/m² 1021.5 hPa
02:48 24.1 °C 14.2 °C 54 % 24 km/h (33 km/h) 0 mm0 mm 26 °C 26.1 °C 24.6 °C 23.2 °C 60000 m 0   0 cm 0 min 0 W/m² 1021.5 hPa
02:42 24.3 °C 13.8 °C 52 % 24 km/h (33 km/h) 0 mm0 mm 26.1 °C 26.1 °C 24.6 °C 23.2 °C 60000 m 0   0 cm 0 min 0 W/m² 1021.5 hPa
02:36 24.5 °C 13.4 °C 50 % 26 km/h (36 km/h) 0 mm0 mm 26.1 °C 26.1 °C 24.6 °C 23.2 °C 60000 m 0   0 cm 0 min 0 W/m² 1021.5 hPa
02:30 24.8 °C 13.4 °C 49 % 24 km/h (36 km/h) 0 mm0 mm 26.1 °C 26.1 °C 24.6 °C 23.2 °C 59830 m 0   0 cm 0 min 0 W/m² 1021.5 hPa
02:24 25 °C 12.9 °C 47 % 21 km/h (33 km/h) 0 mm0 mm 26.2 °C 26.1 °C 24.6 °C 23.2 °C 60000 m 0   0 cm 0 min 0 W/m² 1021.4 hPa
02:18 25.1 °C 12.7 °C 46 % 22 km/h (30 km/h) 0 mm0 mm 26.2 °C 26.2 °C 24.6 °C 23.2 °C 60000 m 0   0 cm 0 min 0 W/m² 1021.3 hPa
02:12 25.3 °C 12.8 °C 46 % 25 km/h (32 km/h) 0 mm0 mm 26.2 °C 26.2 °C 24.6 °C 23.2 °C 60000 m 0   0 cm 0 min 0 W/m² 1021.3 hPa
02:06 25.4 °C 12.6 °C 45 % 25 km/h (31 km/h) 0 mm0 mm 26.2 °C 26.2 °C 24.6 °C 23.2 °C 60000 m 0   0 cm 0 min 0 W/m² 1021.1 hPa
02:00 25.5 °C 12.7 °C 45 % 24 km/h (33 km/h) 0 mm0 mm 26.2 °C 26.2 °C 24.5 °C 23.2 °C 60000 m 0   0 cm 0 min 0 W/m² 1021 hPa
01:54 25.5 °C 12.7 °C 45 % 22 km/h (30 km/h) 0 mm0 mm 26.3 °C 26.3 °C 24.6 °C 23.2 °C 60000 m 0   0 cm 0 min 0 W/m² 1021 hPa
01:48 25.6 °C 12.4 °C 44 % 22 km/h (27 km/h) 0 mm0 mm 26.3 °C 26.3 °C 24.6 °C 23.2 °C 60000 m 0   0 cm 0 min 0 W/m² 1021 hPa
01:42 25.6 °C 12.1 °C 43 % 20 km/h (25 km/h) 0 mm0 mm 26.3 °C 26.3 °C 24.6 °C 23.2 °C 60000 m 0   0 cm 0 min 0 W/m² 1021 hPa
01:36 25.8 °C 12.3 °C 43 % 20 km/h (28 km/h) 0 mm0 mm 26.4 °C 26.3 °C 24.5 °C 23.2 °C 60000 m 0   0 cm 0 min 0 W/m² 1020.9 hPa
01:30 26 °C 11.7 °C 41 % 19 km/h (25 km/h) 0 mm0 mm 26.4 °C 26.3 °C 24.6 °C 23.2 °C 60000 m 0   0 cm 0 min 0 W/m² 1020.9 hPa
01:24 26.2 °C 11.5 °C 40 % 18 km/h (24 km/h) 0 mm0 mm 26.4 °C 26.3 °C 24.6 °C 23.2 °C 60000 m 0   0 cm 0 min 0 W/m² 1021 hPa
01:18 26.5 °C 11.4 °C 39 % 17 km/h (24 km/h) 0 mm0 mm 26.5 °C 26.3 °C 24.6 °C 23.2 °C 60000 m 0   0 cm 0 min 0 W/m² 1021 hPa
01:12 26.6 °C 11.1 °C 38 % 14 km/h (19 km/h) 0 mm0 mm 26.5 °C 26.3 °C 24.5 °C 23.2 °C 60000 m 0   0 cm 0 min 0 W/m² 1020.9 hPa
01:06 26.5 °C 11 °C 38 % 13 km/h (17 km/h) 0 mm0 mm 26.5 °C 26.3 °C 24.5 °C 23.2 °C 60000 m 0   0 cm 0 min 0 W/m² 1020.8 hPa
01:00 26.3 °C 11.2 °C 39 % 12 km/h (17 km/h) 0 mm0 mm 26.6 °C 26.4 °C 24.6 °C 23.2 °C 60000 m 0   0 cm 0 min 0 W/m² 1020.8 hPa
00:54 25.7 °C 11.1 °C 40 % 10 km/h (15 km/h) 0 mm0 mm 26.6 °C 26.4 °C 24.5 °C 23.2 °C 59910 m 0   0 cm 0 min 0 W/m² 1020.7 hPa
00:48 25.5 °C 11.3 °C 41 % 8 km/h (12 km/h) 0 mm0 mm 26.6 °C 26.4 °C 24.5 °C 23.2 °C 59910 m 0   0 cm 0 min 0 W/m² 1020.6 hPa
00:42 25.4 °C 11.2 °C 41 % 7 km/h (9 km/h) 0 mm0 mm 26.6 °C 26.4 °C 24.5 °C 23.2 °C 60000 m 0   0 cm 0 min 0 W/m² 1020.5 hPa
00:36 25.4 °C 11.2 °C 41 % 6 km/h (9 km/h) 0 mm0 mm 26.7 °C 26.4 °C 24.5 °C 23.2 °C 60000 m 0   0 cm 0 min 0 W/m² 1020.4 hPa
00:30 25.5 °C 11.6 °C 42 % 3 km/h (6 km/h) 0 mm0 mm 26.7 °C 26.4 °C 24.5 °C 23.2 °C 60000 m 0   0 cm 0 min 0 W/m² 1020.4 hPa
00:24 25.5 °C 11.6 °C 42 % 2 km/h (4 km/h) 0 mm0 mm 26.7 °C 26.4 °C 24.5 °C 23.2 °C 60000 m 0   0 cm 0 min 0 W/m² 1020.3 hPa
00:18 25.6 °C 11.7 °C 42 % 2 km/h (3 km/h) 0 mm0 mm 26.8 °C 26.4 °C 24.5 °C 23.2 °C 60000 m 0   0 cm 0 min 0 W/m² 1020.3 hPa
00:12 25.7 °C 11.5 °C 41 % 3 km/h (4 km/h) 0 mm0 mm 26.8 °C 26.4 °C 24.5 °C 23.2 °C 60000 m 0   0 cm 0 min 0 W/m² 1020.3 hPa
00:06 25.9 °C 11.6 °C 41 % 4 km/h (6 km/h) 0 mm0 mm 26.8 °C 26.5 °C 24.5 °C 23.2 °C 60000 m 0   0 cm 0 min 0 W/m² 1020.2 hPa
00:00 26.6 °C 11.5 °C 39 % 6 km/h (8 km/h) 0 mm0 mm 26.9 °C 26.5 °C 24.5 °C 23.2 °C 60000 m 0   0 cm 0 min 0 W/m² 1020.1 hPa

Données via Météo-France

Relevés météo à Toulouse-Blagnac

Cette page rassemble les observations de la station de Toulouse-Blagnac : température, humidité, vent, précipitations et pression atmosphérique. Les graphiques facilitent le suivi de la journée, tandis que le tableau donne accès aux mesures horaires et infra-horaires disponibles.

Pour replacer ces mesures dans leur contexte, consultez la climatologie de Toulouse-Blagnac ainsi que ses normales et records. Retrouvez aussi la carte des observations météo en temps réel.